Time;durP1;ratioP1;P1;durP2;ratioP2;P2;SDS_P1;SDS_P2;PMS_P1;PMS_P2;Temp;Humidity;BMP_temperature;BMP_pressure;BME280_temperature;BME280_humidity;BME280_pressure;Samples;Min_cycle;Max_cycle;Signal;HPM_P1;HPM_P2
2022/10/30 00:00:33;;;;;;;78.33;23.60;;;16.10;99.90;;;;;;5043780;28;20430;-84
2022/10/30 00:02:59;;;;;;;83.00;26.50;;;16.20;99.90;;;;;;5043174;28;20192;-84
2022/10/30 00:05:25;;;;;;;81.20;27.97;;;16.20;99.90;;;;;;5043041;28;20746;-84
2022/10/30 00:07:50;;;;;;;81.37;27.07;;;16.20;99.90;;;;;;5043300;28;20191;-84
2022/10/30 00:10:17;;;;;;;87.17;28.47;;;16.20;99.90;;;;;;5042715;28;20495;-84
2022/10/30 00:12:43;;;;;;;85.37;28.60;;;16.20;99.90;;;;;;5043259;28;20172;-84
2022/10/30 00:15:09;;;;;;;78.07;25.87;;;16.20;99.90;;;;;;5042921;28;20410;-84
2022/10/30 00:17:35;;;;;;;78.73;25.43;;;16.20;99.90;;;;;;5040158;28;20846;-84
2022/10/30 00:20:01;;;;;;;87.07;25.60;;;16.20;99.90;;;;;;5042273;28;20448;-84
2022/10/30 00:22:27;;;;;;;80.73;23.53;;;16.10;99.90;;;;;;5042210;28;20190;-84
2022/10/30 00:24:52;;;;;;;78.70;25.30;;;16.10;99.90;;;;;;5043050;28;20410;-84
2022/10/30 00:27:18;;;;;;;79.40;25.03;;;16.10;99.90;;;;;;5042799;28;20195;-84
2022/10/30 00:29:44;;;;;;;79.00;24.50;;;16.10;99.90;;;;;;5042298;28;20183;-84
2022/10/30 00:32:09;;;;;;;78.90;22.67;;;16.10;99.90;;;;;;5041577;28;20170;-84
2022/10/30 00:34:35;;;;;;;84.17;28.20;;;16.20;99.90;;;;;;5040765;28;20174;-84
2022/10/30 00:37:01;;;;;;;78.43;22.83;;;16.20;99.90;;;;;;5057792;28;20613;-84
2022/10/30 00:39:26;;;;;;;80.30;24.80;;;16.20;99.90;;;;;;5041355;28;20195;-84
2022/10/30 00:41:52;;;;;;;83.87;29.17;;;16.10;99.90;;;;;;5042049;28;20171;-84
2022/10/30 00:44:43;;;;;;;80.53;27.33;;;16.20;99.90;;;;;;5041149;28;20171;-84
2022/10/30 00:47:22;;;;;;;81.27;25.67;;;16.10;99.90;;;;;;5042554;28;20199;-84
2022/10/30 00:49:57;;;;;;;76.50;23.13;;;16.10;99.90;;;;;;5042422;28;20425;-84
2022/10/30 00:52:27;;;;;;;85.93;27.40;;;16.10;99.90;;;;;;5041624;28;20388;-84
2022/10/30 00:54:55;;;;;;;81.20;25.73;;;16.10;99.90;;;;;;5041479;28;20378;-84
2022/10/30 00:57:22;;;;;;;76.40;24.50;;;16.20;99.90;;;;;;5041685;28;20402;-84
2022/10/30 00:59:48;;;;;;;82.33;30.43;;;16.20;99.90;;;;;;5042523;28;20484;-84
2022/10/30 01:02:14;;;;;;;82.03;27.93;;;16.30;99.90;;;;;;5057064;28;20445;-84
2022/10/30 01:04:42;;;;;;;83.70;27.27;;;16.20;99.90;;;;;;5041535;28;20890;-84
2022/10/30 01:07:11;;;;;;;79.50;24.90;;;16.20;99.90;;;;;;5040497;28;20402;-84
2022/10/30 01:09:39;;;;;;;85.00;26.40;;;16.20;99.90;;;;;;5040620;28;20433;-83
2022/10/30 01:12:05;;;;;;;83.60;30.07;;;16.20;99.90;;;;;;5039769;28;20401;-84
2022/10/30 01:14:34;;;;;;;78.77;23.47;;;16.10;99.90;;;;;;5040585;28;20854;-84
2022/10/30 01:17:34;;;;;;;84.77;26.20;;;16.10;99.90;;;;;;5042121;28;20398;-84
2022/10/30 01:20:02;;;;;;;82.80;30.87;;;16.00;99.90;;;;;;5038813;28;20829;-84
2022/10/30 01:22:56;;;;;;;83.70;28.43;;;16.00;99.90;;;;;;5041113;28;20445;-84
2022/10/30 01:25:31;;;;;;;80.67;27.73;;;16.00;99.90;;;;;;5044063;28;20486;-84
2022/10/30 01:28:18;;;;;;;81.27;26.80;;;16.00;99.90;;;;;;5043579;28;20422;-84
2022/10/30 01:30:46;;;;;;;85.87;28.03;;;16.00;99.90;;;;;;5043864;28;20406;-84
2022/10/30 01:33:42;;;;;;;86.37;28.00;;;15.90;99.90;;;;;;5042944;28;20774;-84
2022/10/30 01:36:38;;;;;;;82.57;24.90;;;15.90;99.90;;;;;;5045438;28;20735;-84
2022/10/30 01:39:13;;;;;;;77.23;25.50;;;15.90;99.90;;;;;;5044934;28;20421;-84
2022/10/30 01:41:38;;;;;;;76.20;23.27;;;16.00;99.90;;;;;;5043242;28;20750;-84
2022/10/30 01:44:24;;;;;;;78.87;24.63;;;16.00;99.90;;;;;;5045145;28;20450;-84
2022/10/30 01:47:01;;;;;;;78.87;25.17;;;16.00;99.90;;;;;;5045096;28;20152;-84
2022/10/30 01:49:41;;;;;;;77.20;25.63;;;16.00;99.90;;;;;;5043950;28;20844;-84
2022/10/30 01:52:30;;;;;;;80.60;25.90;;;15.90;99.90;;;;;;5042624;28;20388;-85
2022/10/30 01:55:09;;;;;;;81.30;26.77;;;15.70;99.90;;;;;;5042339;28;20420;-85
2022/10/30 01:58:01;;;;;;;81.27;24.23;;;15.70;99.90;;;;;;5043591;28;20437;-84
2022/10/30 02:00:27;;;;;;;85.17;25.37;;;15.70;99.90;;;;;;5042696;28;20512;-84
2022/10/30 02:02:53;;;;;;;84.03;26.20;;;15.70;99.90;;;;;;5043536;28;20440;-84
2022/10/30 02:05:29;;;;;;;81.40;25.90;;;15.50;99.90;;;;;;5044094;28;20473;-84
2022/10/30 02:07:54;;;;;;;78.90;28.57;;;15.60;99.90;;;;;;5042859;28;20377;-84
2022/10/30 02:10:20;;;;;;;83.53;26.30;;;15.60;99.90;;;;;;5043259;28;20424;-84
2022/10/30 02:12:46;;;;;;;85.70;26.20;;;15.60;99.90;;;;;;5042561;28;20176;-84
2022/10/30 02:15:12;;;;;;;82.37;25.30;;;15.60;99.90;;;;;;5044534;28;20580;-84
2022/10/30 02:17:39;;;;;;;78.27;25.40;;;15.60;99.90;;;;;;5042969;28;20409;-84
2022/10/30 02:20:06;;;;;;;77.40;23.73;;;15.60;99.90;;;;;;5044463;28;20186;-84
2022/10/30 02:22:32;;;;;;;78.13;27.83;;;15.50;99.90;;;;;;5043938;28;20456;-84
2022/10/30 02:24:57;;;;;;;82.00;25.20;;;15.50;99.90;;;;;;5042485;28;20406;-84
2022/10/30 02:27:23;;;;;;;78.47;24.30;;;15.40;99.90;;;;;;5044342;28;20253;-85
2022/10/30 02:29:48;;;;;;;82.03;28.73;;;15.40;99.90;;;;;;5041688;28;20265;-84
2022/10/30 02:32:14;;;;;;;82.47;28.17;;;15.40;99.90;;;;;;5040467;28;20170;-84
2022/10/30 02:34:41;;;;;;;82.77;27.30;;;15.40;99.90;;;;;;5042113;28;20171;-84
2022/10/30 02:37:07;;;;;;;80.90;24.97;;;15.30;99.90;;;;;;5041686;28;20166;-84
2022/10/30 02:39:33;;;;;;;81.27;24.97;;;15.30;99.90;;;;;;5040485;28;20436;-84
2022/10/30 02:42:00;;;;;;;80.43;28.40;;;15.30;99.90;;;;;;5041911;28;21014;-84
2022/10/30 02:44:26;;;;;;;80.60;25.10;;;15.30;99.90;;;;;;5041285;28;20157;-84
2022/10/30 02:46:52;;;;;;;88.30;26.13;;;15.30;99.90;;;;;;5041407;28;20485;-84
2022/10/30 02:49:17;;;;;;;84.40;29.47;;;15.40;99.90;;;;;;5041405;28;20267;-84
2022/10/30 02:51:43;;;;;;;79.33;25.63;;;15.40;99.90;;;;;;5043747;28;20170;-84
2022/10/30 02:54:09;;;;;;;80.20;26.07;;;15.30;99.90;;;;;;5043852;28;20169;-84
2022/10/30 02:56:34;;;;;;;78.13;26.50;;;15.10;99.90;;;;;;5043222;28;20165;-83
2022/10/30 02:59:00;;;;;;;82.40;26.50;;;15.20;99.90;;;;;;5041448;28;20247;-84
2022/10/30 03:01:26;;;;;;;80.97;26.30;;;15.20;99.90;;;;;;5044211;28;20166;-84
2022/10/30 03:03:54;;;;;;;85.10;25.73;;;15.20;99.90;;;;;;5043059;28;20240;-84
2022/10/30 03:06:19;;;;;;;85.17;29.70;;;15.20;99.90;;;;;;5044545;28;20207;-84
2022/10/30 03:08:45;;;;;;;82.40;25.20;;;15.20;99.90;;;;;;5043423;28;20462;-84
2022/10/30 03:11:16;;;;;;;106.17;26.80;;;15.20;99.90;;;;;;5044010;28;20158;-84
2022/10/30 03:13:43;;;;;;;78.87;24.50;;;15.20;99.90;;;;;;5044232;28;20151;-84
2022/10/30 03:16:18;;;;;;;82.93;29.10;;;15.10;99.90;;;;;;5044168;28;20858;-84
2022/10/30 03:18:44;;;;;;;81.10;29.10;;;14.90;99.90;;;;;;5044250;28;20977;-84
2022/10/30 03:21:13;;;;;;;82.70;31.27;;;14.90;99.90;;;;;;5042820;28;20413;-84
2022/10/30 03:23:39;;;;;;;84.10;32.33;;;14.70;99.90;;;;;;5043771;28;20439;-84
2022/10/30 03:26:05;;;;;;;85.40;29.30;;;14.80;99.90;;;;;;5042447;28;20435;-84
2022/10/30 03:28:31;;;;;;;83.73;33.90;;;14.90;99.90;;;;;;5059380;28;20169;-84
2022/10/30 03:31:02;;;;;;;77.47;28.37;;;14.90;99.90;;;;;;5043542;28;20404;-84
2022/10/30 03:33:28;;;;;;;82.50;28.20;;;14.90;99.90;;;;;;5043069;28;20423;-84
2022/10/30 03:35:54;;;;;;;81.23;25.07;;;14.90;99.90;;;;;;5043515;28;20431;-84
2022/10/30 03:38:20;;;;;;;79.73;25.67;;;14.90;99.90;;;;;;5040569;28;20532;-84
2022/10/30 03:40:46;;;;;;;80.57;25.17;;;14.80;99.90;;;;;;5042611;28;20483;-84
2022/10/30 03:43:11;;;;;;;81.70;31.83;;;14.70;99.90;;;;;;5042540;28;20193;-84
2022/10/30 03:45:37;;;;;;;83.40;30.57;;;14.60;99.90;;;;;;5043085;28;20223;-84
2022/10/30 03:48:04;;;;;;;86.03;34.27;;;14.70;99.90;;;;;;5042522;28;20177;-84
2022/10/30 03:50:30;;;;;;;81.43;32.37;;;14.70;99.90;;;;;;5040541;28;20178;-84
2022/10/30 03:52:57;;;;;;;82.50;27.67;;;14.80;99.90;;;;;;5042910;28;20404;-84
2022/10/30 03:55:24;;;;;;;82.27;33.00;;;14.70;99.90;;;;;;5040271;28;20405;-84
2022/10/30 03:57:49;;;;;;;83.00;30.47;;;14.70;99.90;;;;;;5041981;28;20463;-84
2022/10/30 04:00:16;;;;;;;76.60;25.37;;;14.80;99.90;;;;;;5042650;28;20427;-84
2022/10/30 04:02:49;;;;;;;83.47;28.67;;;14.80;99.90;;;;;;5042726;28;20195;-84
2022/10/30 04:05:17;;;;;;;84.17;31.80;;;14.70;99.90;;;;;;5042096;28;20759;-84
2022/10/30 04:07:42;;;;;;;78.57;24.77;;;14.70;99.90;;;;;;5042589;28;20407;-84
2022/10/30 04:10:09;;;;;;;80.90;25.97;;;14.70;99.90;;;;;;5038611;28;20427;-84
2022/10/30 04:12:35;;;;;;;79.23;25.03;;;14.70;99.90;;;;;;5042454;28;20807;-84
2022/10/30 04:15:01;;;;;;;81.00;27.57;;;14.70;99.90;;;;;;5042883;28;20416;-84
2022/10/30 04:17:26;;;;;;;81.77;24.03;;;14.70;99.90;;;;;;5039875;28;20161;-84
2022/10/30 04:19:52;;;;;;;79.90;23.73;;;14.70;99.90;;;;;;5042421;28;20464;-84
2022/10/30 04:22:18;;;;;;;82.27;26.90;;;14.60;99.90;;;;;;5041982;28;20228;-84
2022/10/30 04:24:44;;;;;;;78.90;22.90;;;14.60;99.90;;;;;;5042784;28;20165;-84
2022/10/30 04:27:12;;;;;;;80.53;26.57;;;14.60;99.90;;;;;;5040553;28;20219;-84
2022/10/30 04:29:38;;;;;;;76.50;24.40;;;14.60;99.90;;;;;;5042531;28;20419;-84
2022/10/30 04:32:03;;;;;;;76.40;21.47;;;14.60;99.90;;;;;;5040239;28;20558;-84
2022/10/30 04:34:30;;;;;;;81.23;23.57;;;14.60;99.90;;;;;;5042339;28;20416;-84
2022/10/30 04:36:55;;;;;;;79.70;24.90;;;14.60;99.90;;;;;;5041056;28;20466;-84
2022/10/30 04:39:21;;;;;;;82.83;24.47;;;14.50;99.90;;;;;;5041727;28;20420;-84
2022/10/30 04:41:47;;;;;;;80.50;24.80;;;14.40;99.90;;;;;;5039639;28;20161;-84
2022/10/30 04:44:12;;;;;;;81.60;25.13;;;14.40;99.90;;;;;;5041676;28;20671;-84
2022/10/30 04:46:38;;;;;;;78.83;27.47;;;14.40;99.90;;;;;;5040692;28;20197;-84
2022/10/30 04:49:04;;;;;;;78.33;23.60;;;14.40;99.90;;;;;;5041797;28;20188;-84
2022/10/30 04:51:29;;;;;;;81.60;26.70;;;14.40;99.90;;;;;;5042098;28;20235;-84
2022/10/30 04:53:55;;;;;;;81.17;26.53;;;14.30;99.90;;;;;;5042217;28;20165;-84
2022/10/30 04:56:21;;;;;;;79.17;25.67;;;14.20;99.90;;;;;;5043968;28;20185;-84
2022/10/30 04:58:47;;;;;;;82.47;28.17;;;14.20;99.90;;;;;;5046626;28;20494;-84
2022/10/30 05:01:12;;;;;;;80.53;25.23;;;14.20;99.90;;;;;;5045032;28;20532;-84
2022/10/30 05:03:38;;;;;;;80.90;29.23;;;14.30;99.90;;;;;;5044664;28;20196;-85
2022/10/30 05:06:12;;;;;;;80.90;25.90;;;14.30;99.90;;;;;;5043923;28;20165;-84
2022/10/30 05:08:37;;;;;;;77.73;23.80;;;14.20;99.90;;;;;;5043114;28;20208;-84
2022/10/30 05:11:04;;;;;;;90.10;28.20;;;14.20;99.90;;;;;;5042961;28;20400;-84
2022/10/30 05:13:30;;;;;;;84.67;29.30;;;14.10;99.90;;;;;;5045773;28;20223;-84
2022/10/30 05:15:56;;;;;;;86.10;31.27;;;14.00;99.90;;;;;;5045518;28;20411;-84
2022/10/30 05:18:21;;;;;;;82.87;31.33;;;13.90;99.90;;;;;;5045476;28;20407;-84
2022/10/30 05:20:47;;;;;;;82.30;32.57;;;13.90;99.90;;;;;;5044451;28;20261;-84
2022/10/30 05:23:13;;;;;;;87.07;34.50;;;14.00;99.90;;;;;;5045548;28;20200;-84
2022/10/30 05:25:38;;;;;;;87.73;35.37;;;14.00;99.90;;;;;;5060194;23;20185;-84
2022/10/30 05:28:05;;;;;;;82.10;34.97;;;13.90;99.90;;;;;;5040628;28;20181;-84
2022/10/30 05:30:33;;;;;;;82.43;29.90;;;13.90;99.90;;;;;;5041341;28;20211;-84
2022/10/30 05:33:00;;;;;;;88.90;35.33;;;13.90;99.90;;;;;;5040814;28;20399;-84
2022/10/30 05:35:26;;;;;;;83.27;33.20;;;14.00;99.90;;;;;;5040699;28;20450;-84
2022/10/30 05:37:52;;;;;;;85.90;36.80;;;14.10;99.90;;;;;;5040630;28;20410;-84
2022/10/30 05:40:18;;;;;;;82.13;32.77;;;14.00;99.90;;;;;;5039909;28;20455;-84
2022/10/30 05:42:47;;;;;;;93.77;32.73;;;13.90;99.90;;;;;;5040822;28;20189;-84
2022/10/30 05:45:14;;;;;;;86.47;29.53;;;13.70;99.90;;;;;;5040713;28;20414;-84
2022/10/30 05:47:40;;;;;;;81.47;30.13;;;13.70;99.90;;;;;;5040731;28;20404;-84
2022/10/30 05:50:07;;;;;;;82.93;27.60;;;13.70;99.90;;;;;;5040249;28;20424;-84
2022/10/30 05:52:32;;;;;;;89.40;34.03;;;13.80;99.90;;;;;;5040604;28;20503;-84
2022/10/30 05:54:58;;;;;;;81.13;34.03;;;13.80;99.90;;;;;;5040844;28;20827;-84
2022/10/30 05:57:26;;;;;;;87.80;34.07;;;13.80;99.90;;;;;;5040081;28;20533;-84
2022/10/30 05:59:52;;;;;;;86.60;31.43;;;13.90;99.90;;;;;;5039872;28;20196;-84
2022/10/30 06:02:17;;;;;;;88.93;39.23;;;13.80;99.90;;;;;;5040643;28;20787;-84
2022/10/30 06:04:43;;;;;;;82.10;33.87;;;13.80;99.90;;;;;;5041018;28;20625;-84
2022/10/30 06:07:10;;;;;;;81.60;34.40;;;13.70;99.90;;;;;;5040081;28;20161;-84
2022/10/30 06:09:35;;;;;;;83.27;31.30;;;13.60;99.90;;;;;;5039898;28;20579;-84
2022/10/30 06:12:01;;;;;;;84.27;37.60;;;13.60;99.90;;;;;;5039669;28;20402;-84
2022/10/30 06:14:27;;;;;;;77.97;30.27;;;13.70;99.90;;;;;;5039684;28;20215;-84
2022/10/30 06:16:52;;;;;;;81.77;32.50;;;13.70;99.90;;;;;;5040331;28;20495;-84
2022/10/30 06:19:18;;;;;;;81.50;37.83;;;13.70;99.90;;;;;;5039672;28;20177;-84
2022/10/30 06:21:49;;;;;;;90.90;33.23;;;13.70;99.90;;;;;;5039912;28;20166;-84
2022/10/30 06:24:21;;;;;;;86.23;33.23;;;13.50;99.90;;;;;;5039349;28;20428;-84
2022/10/30 06:26:46;;;;;;;80.00;28.60;;;13.50;99.90;;;;;;5038618;28;20424;-84
2022/10/30 06:29:12;;;;;;;82.10;32.50;;;13.60;99.90;;;;;;5039511;28;20423;-84
2022/10/30 06:31:40;;;;;;;82.20;26.47;;;13.70;99.90;;;;;;5039854;28;20244;-84
2022/10/30 06:34:06;;;;;;;90.57;31.03;;;13.70;99.90;;;;;;5039177;28;20230;-84
2022/10/30 06:36:31;;;;;;;86.47;37.00;;;13.80;99.90;;;;;;5039431;28;20907;-84
2022/10/30 06:38:57;;;;;;;86.23;34.80;;;13.80;99.90;;;;;;5039097;28;20664;-84
2022/10/30 06:41:23;;;;;;;82.43;32.70;;;13.80;99.90;;;;;;5040003;28;20165;-84
2022/10/30 06:43:48;;;;;;;81.30;33.63;;;13.90;99.90;;;;;;5039421;28;20227;-84
2022/10/30 06:46:14;;;;;;;84.40;34.67;;;13.80;99.90;;;;;;5039541;28;20659;-84
2022/10/30 06:48:40;;;;;;;87.83;32.93;;;13.90;99.90;;;;;;5039389;28;20533;-84
2022/10/30 06:51:06;;;;;;;82.30;36.37;;;13.90;99.90;;;;;;5039182;28;20649;-84
2022/10/30 06:53:31;;;;;;;84.67;36.80;;;13.90;99.90;;;;;;5039531;28;20633;-84
2022/10/30 06:55:59;;;;;;;85.03;35.47;;;13.90;99.90;;;;;;5039038;28;20407;-84
2022/10/30 06:58:25;;;;;;;79.30;33.20;;;13.90;99.90;;;;;;5038821;28;20176;-84
2022/10/30 07:00:51;;;;;;;79.10;28.97;;;13.90;99.90;;;;;;5039445;28;20408;-84
2022/10/30 07:03:17;;;;;;;83.10;36.23;;;13.90;99.90;;;;;;5038613;28;20511;-84
2022/10/30 07:05:43;;;;;;;85.73;33.10;;;13.90;99.90;;;;;;5039311;28;20912;-84
2022/10/30 07:08:08;;;;;;;85.63;34.60;;;13.90;99.90;;;;;;5038446;28;20427;-85
2022/10/30 07:10:34;;;;;;;81.30;32.80;;;14.00;99.90;;;;;;5039323;28;20196;-84
2022/10/30 07:13:00;;;;;;;82.90;35.47;;;14.00;99.90;;;;;;5039340;28;20161;-84
2022/10/30 07:15:26;;;;;;;79.17;31.97;;;14.00;99.90;;;;;;5038800;28;20191;-84
2022/10/30 07:18:02;;;;;;;88.43;29.83;;;14.00;99.90;;;;;;5038645;28;20166;-84
2022/10/30 07:20:30;;;;;;;83.13;33.60;;;14.00;99.90;;;;;;5038640;28;20514;-84
2022/10/30 07:22:56;;;;;;;84.10;36.00;;;14.00;99.90;;;;;;5039254;28;20501;-84
2022/10/30 07:25:22;;;;;;;81.60;33.60;;;14.00;99.90;;;;;;5038294;28;20899;-84
2022/10/30 07:27:52;;;;;;;83.60;36.17;;;14.00;99.90;;;;;;5038065;28;20239;-84
2022/10/30 07:30:22;;;;;;;85.03;33.10;;;14.00;99.90;;;;;;5038498;28;20415;-84
2022/10/30 07:33:02;;;;;;;82.50;31.00;;;14.00;99.90;;;;;;5038795;28;20381;-84
2022/10/30 07:35:29;;;;;;;84.10;33.03;;;14.00;99.90;;;;;;5038206;28;20487;-84
2022/10/30 07:37:55;;;;;;;80.37;33.10;;;13.90;99.90;;;;;;5038446;28;20400;-84
2022/10/30 07:40:21;;;;;;;80.87;32.60;;;14.00;99.90;;;;;;5037942;28;20765;-84
2022/10/30 07:42:47;;;;;;;85.57;35.27;;;13.90;99.90;;;;;;5038598;28;20444;-84
2022/10/30 07:45:13;;;;;;;85.70;38.20;;;14.00;99.90;;;;;;5038037;28;20404;-84
2022/10/30 07:47:42;;;;;;;84.67;40.23;;;14.00;99.90;;;;;;5038067;28;20165;-84
2022/10/30 07:50:09;;;;;;;88.13;39.70;;;13.90;99.90;;;;;;5037747;28;20192;-84
2022/10/30 07:52:35;;;;;;;96.30;43.23;;;13.90;99.90;;;;;;5038081;28;20491;-84
2022/10/30 07:55:01;;;;;;;87.00;38.63;;;13.90;99.90;;;;;;5038042;28;20442;-84
2022/10/30 07:57:29;;;;;;;85.10;35.53;;;14.00;99.90;;;;;;5037988;28;20486;-84
2022/10/30 07:59:55;;;;;;;88.27;40.53;;;14.10;99.90;;;;;;5037473;28;20483;-84
2022/10/30 08:02:20;;;;;;;82.20;31.07;;;14.20;99.90;;;;;;5037670;28;20837;-84
2022/10/30 08:04:46;;;;;;;84.90;36.27;;;14.10;99.90;;;;;;5036252;28;20640;-83
2022/10/30 08:07:12;;;;;;;88.00;35.00;;;14.20;99.90;;;;;;5037628;28;20172;-84
2022/10/30 08:09:37;;;;;;;83.10;37.70;;;14.20;99.90;;;;;;5037425;28;20187;-84
2022/10/30 08:12:03;;;;;;;85.83;34.13;;;14.30;99.90;;;;;;5037221;28;20238;-84
2022/10/30 08:14:29;;;;;;;84.17;33.30;;;14.30;99.90;;;;;;5037613;28;20215;-84
2022/10/30 08:16:54;;;;;;;90.90;38.00;;;14.40;99.90;;;;;;5036195;28;20404;-84
2022/10/30 08:19:20;;;;;;;95.83;56.87;;;14.40;99.90;;;;;;5037336;28;20190;-84
2022/10/30 08:21:46;;;;;;;87.00;41.67;;;14.40;99.90;;;;;;5038129;28;20572;-84
2022/10/30 08:24:11;;;;;;;88.67;46.90;;;14.50;99.90;;;;;;5037766;28;20239;-84
2022/10/30 08:26:37;;;;;;;94.57;47.87;;;14.60;99.90;;;;;;5037193;28;20173;-84
2022/10/30 08:29:03;;;;;;;94.13;51.43;;;14.60;99.90;;;;;;5037253;28;20181;-84
2022/10/30 08:31:28;;;;;;;95.53;52.10;;;14.60;99.90;;;;;;5036410;28;20237;-84
2022/10/30 08:33:54;;;;;;;86.57;34.00;;;14.70;99.90;;;;;;5037263;28;20175;-84
2022/10/30 08:36:19;;;;;;;85.00;33.40;;;14.80;99.90;;;;;;5037013;28;20169;-84
2022/10/30 08:38:45;;;;;;;84.20;33.20;;;14.80;99.90;;;;;;5037166;28;20188;-84
2022/10/30 08:41:11;;;;;;;88.43;34.43;;;14.90;99.90;;;;;;5037310;28;20176;-84
2022/10/30 08:43:37;;;;;;;83.33;31.67;;;14.90;99.90;;;;;;5037194;28;20216;-84
2022/10/30 08:46:03;;;;;;;85.90;33.77;;;14.90;99.90;;;;;;5035410;28;20158;-84
2022/10/30 08:48:29;;;;;;;90.30;36.20;;;15.00;99.90;;;;;;5034750;28;20403;-84
2022/10/30 08:50:59;;;;;;;84.90;32.57;;;15.00;99.90;;;;;;5035548;28;20165;-84
2022/10/30 08:53:25;;;;;;;88.33;39.60;;;15.10;99.90;;;;;;5035591;28;20168;-84
2022/10/30 08:55:51;;;;;;;90.40;40.50;;;15.00;99.90;;;;;;5037259;28;20400;-83
2022/10/30 08:58:17;;;;;;;90.13;39.70;;;15.00;99.90;;;;;;5036670;28;20161;-84
2022/10/30 09:00:42;;;;;;;88.27;35.37;;;15.10;99.90;;;;;;5036798;28;20408;-84
2022/10/30 09:03:08;;;;;;;91.27;38.40;;;15.10;99.90;;;;;;5036436;28;20553;-84
2022/10/30 09:05:35;;;;;;;86.07;36.73;;;15.10;99.90;;;;;;5036616;28;20219;-84
2022/10/30 09:08:01;;;;;;;85.90;35.80;;;15.20;99.90;;;;;;5036567;28;20162;-84
2022/10/30 09:10:28;;;;;;;86.53;35.40;;;15.30;99.90;;;;;;5035502;28;20796;-84
2022/10/30 09:12:57;;;;;;;89.43;32.10;;;15.30;99.90;;;;;;5036924;28;20408;-84
2022/10/30 09:15:25;;;;;;;82.07;31.80;;;15.40;99.90;;;;;;5036997;28;20435;-84
2022/10/30 09:17:58;;;;;;;84.73;30.97;;;15.50;99.90;;;;;;5037077;28;20760;-85
2022/10/30 09:20:24;;;;;;;84.00;25.57;;;15.50;99.90;;;;;;5034440;28;20428;-84
2022/10/30 09:22:50;;;;;;;87.63;23.00;;;15.60;99.90;;;;;;5036403;28;20467;-84
2022/10/30 09:25:15;;;;;;;84.20;25.50;;;15.70;99.90;;;;;;5051479;28;20408;-84
2022/10/30 09:27:41;;;;;;;89.00;29.47;;;15.80;99.90;;;;;;5036515;28;20182;-84
2022/10/30 09:30:08;;;;;;;83.40;26.07;;;15.80;99.90;;;;;;5036734;28;20484;-84
2022/10/30 09:32:33;;;;;;;80.00;25.90;;;16.00;99.90;;;;;;5035878;28;20193;-84
2022/10/30 09:34:59;;;;;;;80.70;23.10;;;16.00;99.90;;;;;;5036007;28;20412;-84
2022/10/30 09:37:26;;;;;;;82.10;22.50;;;16.10;99.90;;;;;;5036474;28;20171;-84
2022/10/30 09:39:52;;;;;;;94.30;25.83;;;16.20;99.90;;;;;;5036507;28;20198;-84
2022/10/30 09:42:23;;;;;;;78.53;24.00;;;16.30;99.90;;;;;;5036480;28;20485;-83
2022/10/30 09:44:55;;;;;;;77.57;23.77;;;16.40;99.90;;;;;;5039461;28;20920;-83
2022/10/30 09:48:00;;;;;;;85.63;27.20;;;16.50;99.90;;;;;;5039202;28;20404;-83
2022/10/30 09:50:58;;;;;;;90.80;27.40;;;16.60;99.90;;;;;;5039616;28;20470;-83
2022/10/30 09:53:45;;;;;;;86.40;29.30;;;16.70;99.90;;;;;;5033128;28;20405;-83
2022/10/30 09:56:30;;;;;;;79.00;23.13;;;16.90;99.90;;;;;;5039627;28;20379;-83
2022/10/30 09:59:20;;;;;;;79.70;22.30;;;17.00;99.90;;;;;;5039594;28;20420;-83
2022/10/30 10:01:59;;;;;;;84.50;21.20;;;17.00;99.90;;;;;;5039472;28;20406;-83
2022/10/30 10:04:51;;;;;;;77.57;21.20;;;17.20;99.90;;;;;;5038806;28;20517;-83
2022/10/30 10:07:21;;;;;;;86.83;24.83;;;17.40;99.90;;;;;;5038024;28;20408;-83
2022/10/30 10:09:51;;;;;;;83.00;24.33;;;17.60;99.90;;;;;;5040039;28;20420;-83
2022/10/30 10:12:32;;;;;;;81.60;23.40;;;17.60;99.90;;;;;;5039529;28;20418;-83
2022/10/30 10:15:03;;;;;;;82.50;23.90;;;17.50;99.90;;;;;;5039707;28;20403;-83
2022/10/30 10:17:36;;;;;;;81.40;24.23;;;17.60;99.90;;;;;;5039067;28;20414;-83
2022/10/30 10:20:04;;;;;;;81.67;24.00;;;17.70;99.90;;;;;;5039552;28;20470;-83
2022/10/30 10:22:44;;;;;;;78.60;20.00;;;18.00;99.90;;;;;;5037792;28;20459;-83
2022/10/30 10:25:13;;;;;;;76.17;18.30;;;18.10;99.90;;;;;;5038725;28;20384;-83
2022/10/30 10:28:04;;;;;;;83.93;20.43;;;18.20;99.90;;;;;;5039050;28;21009;-83
2022/10/30 10:30:55;;;;;;;77.27;17.77;;;18.20;99.90;;;;;;5015812;28;20434;-83
2022/10/30 10:33:48;;;;;;;75.37;18.90;;;18.30;99.90;;;;;;5039176;28;20404;-83
2022/10/30 10:36:17;;;;;;;80.40;16.53;;;18.30;99.90;;;;;;5037610;28;20410;-83
2022/10/30 10:39:12;;;;;;;75.87;16.20;;;18.40;99.90;;;;;;5038873;28;20452;-83
2022/10/30 10:42:00;;;;;;;77.57;15.80;;;18.50;99.90;;;;;;5035758;28;20419;-83
2022/10/30 10:44:57;;;;;;;77.90;14.13;;;18.70;99.90;;;;;;5038991;28;20458;-83
2022/10/30 10:47:49;;;;;;;78.20;12.57;;;18.90;99.90;;;;;;5038993;28;20423;-83
2022/10/30 10:50:18;;;;;;;74.60;12.20;;;19.20;99.90;;;;;;5038938;28;20454;-83
2022/10/30 10:52:57;;;;;;;77.30;13.73;;;19.20;99.90;;;;;;5037899;28;20404;-83
2022/10/30 10:55:35;;;;;;;77.27;11.57;;;19.20;99.90;;;;;;5038998;28;20386;-83
2022/10/30 10:58:07;;;;;;;73.47;9.90;;;19.30;99.40;;;;;;5038499;28;20384;-83
2022/10/30 11:00:34;;;;;;;77.60;9.80;;;19.40;96.50;;;;;;5038731;28;20507;-83
2022/10/30 11:03:06;;;;;;;79.73;7.90;;;19.50;95.30;;;;;;5038615;28;20444;-83
2022/10/30 11:06:03;;;;;;;76.30;7.53;;;19.60;91.10;;;;;;5038354;28;20397;-83
2022/10/30 11:08:31;;;;;;;78.83;8.30;;;19.50;89.30;;;;;;5038694;28;20392;-83
2022/10/30 11:11:04;;;;;;;73.70;6.70;;;19.70;91.60;;;;;;5038391;28;20404;-81
2022/10/30 11:13:35;;;;;;;73.50;6.60;;;20.00;80.90;;;;;;5038632;28;20393;-80
2022/10/30 11:16:16;;;;;;;71.77;7.70;;;20.10;73.10;;;;;;5038013;28;20483;-80
2022/10/30 11:18:44;;;;;;;72.10;7.07;;;20.10;69.50;;;;;;5037905;28;20486;-80
2022/10/30 11:21:16;;;;;;;79.10;10.00;;;20.10;66.60;;;;;;5053410;28;20451;-80
2022/10/30 11:23:44;;;;;;;77.60;6.50;;;20.30;64.90;;;;;;5038300;28;20927;-80
2022/10/30 11:26:31;;;;;;;76.70;6.53;;;20.40;67.80;;;;;;5110031;22;20472;-84
2022/10/30 11:29:17;;;;;;;77.33;7.10;;;20.40;60.70;;;;;;5043654;28;20444;-85
2022/10/30 11:31:44;;;;;;;69.30;5.43;;;20.40;61.10;;;;;;5044840;28;20386;-85
2022/10/30 11:34:23;;;;;;;74.60;6.27;;;20.50;55.40;;;;;;5061276;28;20427;-84
2022/10/30 11:36:51;;;;;;;74.57;5.93;;;20.50;52.40;;;;;;5057475;28;20405;-85
2022/10/30 11:39:28;;;;;;;74.43;6.57;;;20.60;44.40;;;;;;5060948;28;20427;-85
2022/10/30 11:41:58;;;;;;;73.57;6.60;;;20.70;46.50;;;;;;5045818;28;20820;-85
2022/10/30 11:44:35;;;;;;;73.20;6.43;;;20.70;41.20;;;;;;5045108;28;20452;-85
2022/10/30 11:47:01;;;;;;;70.37;6.40;;;20.60;42.30;;;;;;5046646;28;20762;-84
2022/10/30 11:49:49;;;;;;;76.63;6.33;;;20.60;40.90;;;;;;5057987;28;20512;-85
2022/10/30 11:52:18;;;;;;;73.10;6.57;;;20.70;36.00;;;;;;5041865;28;20435;-85
2022/10/30 11:54:47;;;;;;;72.30;6.30;;;20.70;38.40;;;;;;5046098;28;20472;-85
2022/10/30 11:57:40;;;;;;;70.67;7.10;;;20.70;34.60;;;;;;5043866;28;20438;-85
2022/10/30 12:00:30;;;;;;;72.53;6.50;;;20.70;36.20;;;;;;5042886;28;20426;-85
2022/10/30 12:03:02;;;;;;;73.90;7.00;;;20.70;39.60;;;;;;5060885;28;20541;-84
2022/10/30 12:05:27;;;;;;;75.60;6.00;;;20.80;36.90;;;;;;5042901;28;20380;-85
2022/10/30 12:08:08;;;;;;;71.60;7.73;;;20.80;34.40;;;;;;5044422;28;20424;-84
2022/10/30 12:10:45;;;;;;;80.07;6.90;;;20.80;37.20;;;;;;5043905;28;20189;-84
2022/10/30 12:13:19;;;;;;;75.27;7.30;;;20.80;34.50;;;;;;5045291;28;20380;-85
2022/10/30 12:15:48;;;;;;;73.90;7.00;;;20.80;36.70;;;;;;5044510;28;20404;-85
2022/10/30 12:18:21;;;;;;;78.17;13.67;;;21.00;39.00;;;;;;5042473;28;20407;-84
2022/10/30 12:20:52;;;;;;;77.93;12.63;;;21.00;24.80;;;;;;5046022;28;20413;-85
2022/10/30 12:23:24;;;;;;;76.37;14.70;;;21.10;27.50;;;;;;5044738;28;20436;-85
2022/10/30 12:25:52;;;;;;;83.17;18.50;;;21.20;25.80;;;;;;5045357;28;20407;-85
2022/10/30 12:28:24;;;;;;;80.93;18.83;;;21.20;22.30;;;;;;5045180;28;20390;-84
2022/10/30 12:30:55;;;;;;;78.83;17.10;;;21.20;22.80;;;;;;5044182;28;20403;-84
2022/10/30 12:33:52;;;;;;;81.40;22.27;;;21.20;24.30;;;;;;5044077;28;20463;-85
2022/10/30 12:36:26;;;;;;;78.33;24.77;;;21.20;22.10;;;;;;5044170;28;20396;-85
2022/10/30 12:39:10;;;;;;;86.20;19.17;;;21.20;18.60;;;;;;5044967;28;20490;-85
2022/10/30 12:41:45;;;;;;;77.70;16.20;;;21.10;23.90;;;;;;5044670;28;20437;-85